BRA1721 SBKP-SEQM
Flight info
| Callsign | BRA1721 |
|---|---|
| Flight time | 5h 17m |
| Altitude | 32000 |
| Route | GERTU UM775 ALBOM/N0494F340 UM775 RCO UN420 DAMDU DCT IQT UM776 QIT |
| Aircraft | B77L/H-SDE1E2E3FGHIJ2J3J4J5M1RWXY/LB1D1 |
Departure
| Time | 2026-05-09 12:15 |
|---|---|
| Airport | Viracopos International Airport (SBKP) |
Arrival
| Time | 2026-05-09 17:33 |
|---|---|
| Airport | Mariscal Sucre International Airport (SEQM) |
| Time | Latitude | Longitude | Altitude | Speed | Heading |
|---|---|---|---|---|---|
| 2026-05-09 11:52 | -23.00632 | -47.14246 | 2161 ft | 0 kts | 218° |
| 2026-05-09 11:52 | -23.00635 | -47.14248 | 2161 ft | 0 kts | 218° |
| 2026-05-09 12:03 | -23.00633 | -47.14247 | 2161 ft | 2 kts | 218° |
| 2026-05-09 12:03 | -23.00614 | -47.14229 | 2153 ft | 4 kts | 227° |
| 2026-05-09 12:04 | -23.00598 | -47.14206 | 2155 ft | 4 kts | 242° |
| 2026-05-09 12:04 | -23.00588 | -47.14180 | 2153 ft | 4 kts | 261° |
| 2026-05-09 12:04 | -23.00588 | -47.14153 | 2153 ft | 4 kts | 283° |
| 2026-05-09 12:04 | -23.00596 | -47.14126 | 2153 ft | 4 kts | 301° |
| 2026-05-09 12:05 | -23.00612 | -47.14102 | 2153 ft | 4 kts | 309° |
| 2026-05-09 12:05 | -23.00625 | -47.14084 | 2153 ft | 0 kts | 305° |
| 2026-05-09 12:08 | -23.00608 | -47.14110 | 2156 ft | 7 kts | 306° |
| 2026-05-09 12:08 | -23.00580 | -47.14151 | 2155 ft | 7 kts | 308° |
| 2026-05-09 12:08 | -23.00550 | -47.14191 | 2153 ft | 7 kts | 308° |
| 2026-05-09 12:08 | -23.00521 | -47.14232 | 2155 ft | 7 kts | 308° |
| 2026-05-09 12:09 | -23.00493 | -47.14272 | 2153 ft | 7 kts | 307° |
| 2026-05-09 12:09 | -23.00464 | -47.14312 | 2153 ft | 7 kts | 308° |
| 2026-05-09 12:09 | -23.00435 | -47.14352 | 2154 ft | 7 kts | 308° |
| 2026-05-09 12:10 | -23.00348 | -47.14473 | 2156 ft | 7 kts | 308° |
| 2026-05-09 12:10 | -23.00319 | -47.14513 | 2153 ft | 7 kts | 308° |
| 2026-05-09 12:10 | -23.00290 | -47.14554 | 2156 ft | 7 kts | 308° |
| 2026-05-09 12:11 | -23.00262 | -47.14594 | 2157 ft | 7 kts | 308° |
| 2026-05-09 12:11 | -23.00233 | -47.14634 | 2153 ft | 7 kts | 308° |
| 2026-05-09 12:11 | -23.00204 | -47.14674 | 2153 ft | 7 kts | 308° |
| 2026-05-09 12:11 | -23.00175 | -47.14715 | 2153 ft | 7 kts | 308° |
| 2026-05-09 12:12 | -23.00154 | -47.14744 | 2154 ft | 0 kts | 308° |
| 2026-05-09 12:13 | -23.00106 | -47.14791 | 2153 ft | 12 kts | 330° |
| 2026-05-09 12:13 | -23.00025 | -47.14803 | 2157 ft | 12 kts | 3° |
| 2026-05-09 12:13 | -22.99946 | -47.14778 | 2155 ft | 12 kts | 33° |
| 2026-05-09 12:14 | -22.99909 | -47.14735 | 2153 ft | 5 kts | 53° |
| 2026-05-09 12:14 | -22.99890 | -47.14703 | 2154 ft | 5 kts | 60° |
| 2026-05-09 12:14 | -22.99880 | -47.14668 | 2154 ft | 5 kts | 92° |
| 2026-05-09 12:14 | -22.99897 | -47.14633 | 2153 ft | 5 kts | 124° |
| 2026-05-09 12:15 | -22.99907 | -47.14619 | 2154 ft | 13 kts | 124° |
| 2026-05-09 12:15 | -23.00142 | -47.14286 | 2157 ft | 101 kts | 128° |
| 2026-05-09 12:15 | -23.00756 | -47.13423 | 2153 ft | 182 kts | 127° |
| 2026-05-09 12:15 | -23.01568 | -47.12316 | 2998 ft | 184 kts | 128° |
| 2026-05-09 12:16 | -23.02220 | -47.11083 | 3667 ft | 200 kts | 91° |
| 2026-05-09 12:16 | -23.02038 | -47.09626 | 4133 ft | 198 kts | 68° |
| 2026-05-09 12:16 | -23.01702 | -47.08131 | 4649 ft | 206 kts | 70° |
| 2026-05-09 12:16 | -23.01401 | -47.06582 | 5262 ft | 214 kts | 71° |
| 2026-05-09 12:17 | -23.01103 | -47.04975 | 5864 ft | 220 kts | 72° |
| 2026-05-09 12:17 | -23.00810 | -47.03337 | 6445 ft | 223 kts | 72° |
| 2026-05-09 12:17 | -23.00257 | -47.01769 | 6665 ft | 227 kts | 42° |
| 2026-05-09 12:17 | -22.99040 | -47.00664 | 7096 ft | 229 kts | 31° |
| 2026-05-09 12:18 | -22.97753 | -46.99614 | 7674 ft | 234 kts | 31° |
| 2026-05-09 12:18 | -22.96447 | -46.98541 | 8010 ft | 237 kts | 31° |
| 2026-05-09 12:18 | -22.95113 | -46.97450 | 8004 ft | 242 kts | 31° |
| 2026-05-09 12:18 | -22.93764 | -46.96348 | 7997 ft | 241 kts | 31° |
| 2026-05-09 12:19 | -22.92452 | -46.95276 | 7992 ft | 236 kts | 31° |
| 2026-05-09 12:19 | -22.91083 | -46.94369 | 7976 ft | 225 kts | 11° |
| 2026-05-09 12:19 | -22.89576 | -46.94328 | 8199 ft | 216 kts | 344° |
| 2026-05-09 12:19 | -22.88163 | -46.94903 | 8810 ft | 220 kts | 330° |
| 2026-05-09 12:20 | -22.86799 | -46.95733 | 9225 ft | 236 kts | 328° |
| 2026-05-09 12:20 | -22.85295 | -46.96688 | 9553 ft | 256 kts | 328° |
| 2026-05-09 12:20 | -22.83725 | -46.97679 | 10157 ft | 267 kts | 328° |
| 2026-05-09 12:20 | -22.82078 | -46.98711 | 10595 ft | 285 kts | 328° |
| 2026-05-09 12:21 | -22.80261 | -46.99838 | 10769 ft | 312 kts | 329° |
| 2026-05-09 12:21 | -22.78323 | -47.01034 | 10952 ft | 338 kts | 329° |
| 2026-05-09 12:21 | -22.76366 | -47.02533 | 11222 ft | 353 kts | 314° |
| 2026-05-09 12:21 | -22.74844 | -47.04699 | 11782 ft | 361 kts | 304° |
| 2026-05-09 12:22 | -22.73452 | -47.06990 | 12480 ft | 368 kts | 303° |
| 2026-05-09 12:22 | -22.72047 | -47.09312 | 13262 ft | 372 kts | 303° |
| 2026-05-09 12:22 | -22.70628 | -47.11648 | 14014 ft | 376 kts | 303° |
| 2026-05-09 12:22 | -22.69177 | -47.14023 | 14675 ft | 381 kts | 304° |
| 2026-05-09 12:23 | -22.67710 | -47.16414 | 15379 ft | 383 kts | 304° |
| 2026-05-09 12:23 | -22.66226 | -47.18822 | 16065 ft | 386 kts | 304° |
| 2026-05-09 12:23 | -22.64719 | -47.21260 | 16755 ft | 389 kts | 304° |
| 2026-05-09 12:23 | -22.63206 | -47.23702 | 17414 ft | 393 kts | 304° |
| 2026-05-09 12:24 | -22.61675 | -47.26171 | 18056 ft | 396 kts | 304° |
| 2026-05-09 12:24 | -22.60134 | -47.28656 | 18640 ft | 400 kts | 304° |
| 2026-05-09 12:24 | -22.58584 | -47.31152 | 19194 ft | 402 kts | 304° |
| 2026-05-09 12:24 | -22.57018 | -47.33674 | 19768 ft | 404 kts | 304° |
| 2026-05-09 12:25 | -22.55440 | -47.36215 | 20334 ft | 406 kts | 304° |
| 2026-05-09 12:25 | -22.53854 | -47.38767 | 20908 ft | 409 kts | 304° |
| 2026-05-09 12:25 | -22.52266 | -47.41320 | 21464 ft | 412 kts | 304° |
| 2026-05-09 12:25 | -22.50656 | -47.43908 | 22020 ft | 414 kts | 303° |
| 2026-05-09 12:26 | -22.49061 | -47.46471 | 22566 ft | 417 kts | 303° |
| 2026-05-09 12:26 | -22.47432 | -47.49087 | 23110 ft | 419 kts | 303° |
| 2026-05-09 12:26 | -22.45791 | -47.51721 | 23645 ft | 422 kts | 303° |
| 2026-05-09 12:26 | -22.44151 | -47.54349 | 24075 ft | 424 kts | 304° |
| 2026-05-09 12:27 | -22.42280 | -47.56813 | 24469 ft | 429 kts | 316° |
| 2026-05-09 12:27 | -22.39876 | -47.58725 | 24794 ft | 432 kts | 324° |
| 2026-05-09 12:27 | -22.37369 | -47.60521 | 25122 ft | 436 kts | 324° |
| 2026-05-09 12:27 | -22.34832 | -47.62368 | 25538 ft | 439 kts | 323° |
| 2026-05-09 12:28 | -22.32321 | -47.64219 | 25984 ft | 441 kts | 323° |
| 2026-05-09 12:28 | -22.29787 | -47.66101 | 26419 ft | 443 kts | 323° |
| 2026-05-09 12:28 | -22.27230 | -47.68011 | 26843 ft | 445 kts | 323° |
| 2026-05-09 12:28 | -22.24690 | -47.69912 | 27222 ft | 448 kts | 323° |
| 2026-05-09 12:29 | -22.22111 | -47.71843 | 27622 ft | 451 kts | 323° |
| 2026-05-09 12:29 | -22.19525 | -47.73779 | 28030 ft | 453 kts | 323° |
| 2026-05-09 12:29 | -22.16934 | -47.75717 | 28408 ft | 456 kts | 323° |
| 2026-05-09 12:29 | -22.14313 | -47.77676 | 28785 ft | 458 kts | 323° |
| 2026-05-09 12:30 | -22.11686 | -47.79638 | 29149 ft | 460 kts | 323° |
| 2026-05-09 12:30 | -22.09055 | -47.81601 | 29511 ft | 463 kts | 323° |
| 2026-05-09 12:30 | -22.03741 | -47.85565 | 30226 ft | 466 kts | 323° |
| 2026-05-09 12:31 | -22.01073 | -47.87553 | 30623 ft | 465 kts | 323° |
| 2026-05-09 12:31 | -21.95792 | -47.91486 | 31492 ft | 461 kts | 323° |
| 2026-05-09 12:31 | -21.93147 | -47.93454 | 31902 ft | 460 kts | 323° |
| 2026-05-09 12:32 | -21.90527 | -47.95404 | 32296 ft | 459 kts | 323° |
| 2026-05-09 12:32 | -21.87912 | -47.97350 | 32673 ft | 458 kts | 323° |
| 2026-05-09 12:32 | -21.85297 | -47.99294 | 33062 ft | 457 kts | 322° |
| 2026-05-09 12:32 | -21.82687 | -48.01234 | 33439 ft | 455 kts | 322° |
| 2026-05-09 12:33 | -21.80075 | -48.03174 | 33813 ft | 454 kts | 322° |
| 2026-05-09 12:33 | -21.77479 | -48.05110 | 34012 ft | 457 kts | 322° |
| 2026-05-09 12:33 | -21.74874 | -48.07087 | 34046 ft | 458 kts | 322° |
| 2026-05-09 12:34 | -21.69698 | -48.11048 | 34059 ft | 454 kts | 322° |
| 2026-05-09 12:34 | -21.64546 | -48.14988 | 34066 ft | 451 kts | 322° |
| 2026-05-09 12:35 | -21.59432 | -48.18887 | 34070 ft | 450 kts | 322° |
| 2026-05-09 12:35 | -21.54320 | -48.22778 | 34070 ft | 450 kts | 322° |
| 2026-05-09 12:36 | -21.49232 | -48.26646 | 34069 ft | 452 kts | 322° |
| 2026-05-09 12:36 | -21.44077 | -48.30561 | 34067 ft | 453 kts | 322° |
| 2026-05-09 12:37 | -21.38940 | -48.34458 | 34070 ft | 454 kts | 322° |
| 2026-05-09 12:37 | -21.33773 | -48.38376 | 34072 ft | 455 kts | 322° |
| 2026-05-09 12:38 | -21.28580 | -48.42309 | 34071 ft | 456 kts | 322° |
| 2026-05-09 12:38 | -21.23406 | -48.46224 | 34069 ft | 456 kts | 323° |
| 2026-05-09 12:39 | -21.18237 | -48.50134 | 34070 ft | 456 kts | 323° |
| 2026-05-09 12:39 | -21.13039 | -48.54060 | 34067 ft | 456 kts | 323° |
| 2026-05-09 12:40 | -21.07856 | -48.57972 | 34072 ft | 456 kts | 323° |
| 2026-05-09 12:40 | -21.02658 | -48.61893 | 34071 ft | 457 kts | 323° |
| 2026-05-09 12:41 | -20.97481 | -48.65794 | 34068 ft | 457 kts | 323° |
| 2026-05-09 12:41 | -20.92258 | -48.69726 | 34072 ft | 458 kts | 323° |
| 2026-05-09 12:42 | -20.87048 | -48.73646 | 34069 ft | 458 kts | 323° |
| 2026-05-09 12:42 | -20.81837 | -48.77563 | 34072 ft | 458 kts | 323° |
| 2026-05-09 12:43 | -20.76646 | -48.81463 | 34071 ft | 459 kts | 323° |
| 2026-05-09 12:43 | -20.71408 | -48.85392 | 34078 ft | 459 kts | 323° |
| 2026-05-09 12:44 | -20.66190 | -48.89302 | 34066 ft | 460 kts | 323° |
| 2026-05-09 12:44 | -20.60954 | -48.93225 | 34066 ft | 460 kts | 323° |
| 2026-05-09 12:45 | -20.56559 | -48.96515 | 34073 ft | 460 kts | 323° |
| 2026-05-09 12:45 | -20.51310 | -49.00443 | 34069 ft | 461 kts | 323° |
| 2026-05-09 12:46 | -20.46056 | -49.04371 | 34071 ft | 461 kts | 322° |
| 2026-05-09 12:46 | -20.40823 | -49.08279 | 34069 ft | 461 kts | 322° |
| 2026-05-09 12:47 | -20.35556 | -49.12209 | 34065 ft | 461 kts | 322° |
| 2026-05-09 12:47 | -20.30281 | -49.16143 | 34062 ft | 461 kts | 322° |
| 2026-05-09 12:48 | -20.25024 | -49.20059 | 34064 ft | 461 kts | 322° |
| 2026-05-09 12:48 | -20.19795 | -49.23951 | 34059 ft | 461 kts | 322° |
| 2026-05-09 12:49 | -20.14516 | -49.27878 | 34063 ft | 461 kts | 322° |
| 2026-05-09 12:49 | -20.09260 | -49.31784 | 34065 ft | 461 kts | 322° |
| 2026-05-09 12:50 | -20.03974 | -49.35708 | 34060 ft | 461 kts | 322° |
| 2026-05-09 12:50 | -19.98720 | -49.39606 | 34063 ft | 462 kts | 322° |
| 2026-05-09 12:51 | -19.93442 | -49.43519 | 34064 ft | 462 kts | 322° |
| 2026-05-09 12:51 | -19.88180 | -49.47416 | 34059 ft | 462 kts | 322° |
| 2026-05-09 12:52 | -19.82913 | -49.51315 | 34061 ft | 462 kts | 322° |
| 2026-05-09 12:52 | -19.77655 | -49.55203 | 34061 ft | 462 kts | 322° |
| 2026-05-09 12:53 | -19.72366 | -49.59110 | 34061 ft | 462 kts | 323° |
| 2026-05-09 12:53 | -19.67097 | -49.63000 | 34063 ft | 462 kts | 323° |
| 2026-05-09 12:54 | -19.61809 | -49.66901 | 34068 ft | 462 kts | 323° |
| 2026-05-09 12:54 | -19.56525 | -49.70796 | 34065 ft | 462 kts | 323° |
| 2026-05-09 12:55 | -19.51235 | -49.74692 | 34066 ft | 462 kts | 323° |
| 2026-05-09 12:55 | -19.45985 | -49.78557 | 34070 ft | 462 kts | 323° |
| 2026-05-09 12:56 | -19.40694 | -49.82448 | 34065 ft | 463 kts | 323° |
| 2026-05-09 12:56 | -19.35691 | -49.86714 | 34062 ft | 459 kts | 312° |
| 2026-05-09 12:57 | -19.31608 | -49.91889 | 34063 ft | 457 kts | 302° |
| 2026-05-09 12:57 | -19.28292 | -49.97600 | 34069 ft | 457 kts | 300° |
| 2026-05-09 12:58 | -19.25013 | -50.03387 | 34061 ft | 458 kts | 300° |
| 2026-05-09 12:58 | -19.21718 | -50.09146 | 34059 ft | 458 kts | 301° |
| 2026-05-09 12:59 | -19.18413 | -50.14875 | 34065 ft | 458 kts | 301° |
| 2026-05-09 12:59 | -19.15071 | -50.20649 | 34061 ft | 458 kts | 301° |
| 2026-05-09 13:00 | -19.11747 | -50.26387 | 34056 ft | 458 kts | 301° |
| 2026-05-09 13:00 | -19.08412 | -50.32141 | 34060 ft | 458 kts | 301° |
| 2026-05-09 13:01 | -19.05077 | -50.37890 | 34053 ft | 458 kts | 301° |
| 2026-05-09 13:01 | -19.01740 | -50.43637 | 34048 ft | 458 kts | 301° |
| 2026-05-09 13:02 | -18.98421 | -50.49348 | 34062 ft | 458 kts | 301° |
| 2026-05-09 13:02 | -18.95098 | -50.55059 | 34051 ft | 458 kts | 301° |
| 2026-05-09 13:03 | -18.91754 | -50.60803 | 34052 ft | 458 kts | 301° |
| 2026-05-09 13:03 | -18.88422 | -50.66523 | 34051 ft | 458 kts | 301° |
| 2026-05-09 13:04 | -18.85085 | -50.72244 | 34051 ft | 458 kts | 301° |
| 2026-05-09 13:04 | -18.81726 | -50.77999 | 34052 ft | 459 kts | 301° |
| 2026-05-09 13:05 | -18.78397 | -50.83692 | 34052 ft | 459 kts | 301° |
| 2026-05-09 13:05 | -18.75045 | -50.89419 | 34056 ft | 460 kts | 301° |
| 2026-05-09 13:06 | -18.71680 | -50.95163 | 34053 ft | 460 kts | 301° |
| 2026-05-09 13:06 | -18.68293 | -51.00942 | 34056 ft | 461 kts | 301° |
| 2026-05-09 13:07 | -18.64936 | -51.06664 | 34049 ft | 462 kts | 301° |
| 2026-05-09 13:07 | -18.61540 | -51.12449 | 34052 ft | 462 kts | 301° |
| 2026-05-09 13:08 | -18.58160 | -51.18201 | 34055 ft | 463 kts | 301° |
| 2026-05-09 13:08 | -18.54759 | -51.23983 | 34063 ft | 463 kts | 301° |
| 2026-05-09 13:09 | -18.51392 | -51.29704 | 34059 ft | 463 kts | 301° |
| 2026-05-09 13:09 | -18.47975 | -51.35498 | 34058 ft | 463 kts | 301° |
| 2026-05-09 13:10 | -18.44576 | -51.41252 | 34060 ft | 463 kts | 301° |
| 2026-05-09 13:10 | -18.41192 | -51.46978 | 34063 ft | 462 kts | 301° |
| 2026-05-09 13:11 | -18.37800 | -51.52715 | 34057 ft | 462 kts | 301° |
| 2026-05-09 13:11 | -18.34406 | -51.58449 | 34060 ft | 462 kts | 301° |
| 2026-05-09 13:12 | -18.30987 | -51.64225 | 34063 ft | 462 kts | 301° |
| 2026-05-09 13:12 | -18.27613 | -51.69928 | 34063 ft | 461 kts | 301° |
| 2026-05-09 13:13 | -18.24214 | -51.75670 | 34066 ft | 461 kts | 301° |
| 2026-05-09 13:13 | -18.20818 | -51.81401 | 34067 ft | 461 kts | 301° |
| 2026-05-09 13:14 | -18.17425 | -51.87123 | 34065 ft | 461 kts | 301° |
| 2026-05-09 13:16 | -18.03836 | -52.09986 | 34062 ft | 462 kts | 301° |
| 2026-05-09 13:16 | -18.00427 | -52.15711 | 34071 ft | 462 kts | 301° |
| 2026-05-09 13:17 | -17.97004 | -52.21452 | 34071 ft | 462 kts | 301° |
| 2026-05-09 13:17 | -17.93599 | -52.27163 | 34073 ft | 463 kts | 301° |
| 2026-05-09 13:18 | -17.90197 | -52.32867 | 34067 ft | 463 kts | 301° |
| 2026-05-09 13:18 | -17.86768 | -52.38611 | 34066 ft | 463 kts | 301° |
| 2026-05-09 13:19 | -17.83344 | -52.44342 | 34070 ft | 463 kts | 301° |
| 2026-05-09 13:19 | -17.79938 | -52.50038 | 34069 ft | 463 kts | 301° |
| 2026-05-09 13:20 | -17.76500 | -52.55782 | 34070 ft | 463 kts | 301° |
| 2026-05-09 13:20 | -17.73066 | -52.61515 | 34068 ft | 463 kts | 301° |
| 2026-05-09 13:21 | -17.69659 | -52.67198 | 34064 ft | 463 kts | 301° |
| 2026-05-09 13:21 | -17.66227 | -52.72918 | 34069 ft | 463 kts | 301° |
| 2026-05-09 13:22 | -17.62792 | -52.78638 | 34063 ft | 463 kts | 301° |
| 2026-05-09 13:22 | -17.59365 | -52.84338 | 34068 ft | 463 kts | 301° |
| 2026-05-09 13:23 | -17.50799 | -52.98567 | 34070 ft | 462 kts | 301° |
| 2026-05-09 13:24 | -17.47352 | -53.04286 | 34066 ft | 462 kts | 301° |
| 2026-05-09 13:24 | -17.43937 | -53.09947 | 34067 ft | 462 kts | 301° |
| 2026-05-09 13:25 | -17.40489 | -53.15656 | 34065 ft | 462 kts | 301° |
| 2026-05-09 13:26 | -17.35342 | -53.24170 | 34062 ft | 461 kts | 301° |
| 2026-05-09 13:26 | -17.31919 | -53.29827 | 34061 ft | 461 kts | 301° |
| 2026-05-09 13:27 | -17.28477 | -53.35509 | 34060 ft | 461 kts | 301° |
| 2026-05-09 13:27 | -17.25046 | -53.41169 | 34060 ft | 461 kts | 301° |
| 2026-05-09 13:28 | -17.21605 | -53.46842 | 34059 ft | 461 kts | 301° |
| 2026-05-09 13:28 | -17.18152 | -53.52529 | 34056 ft | 461 kts | 301° |
| 2026-05-09 13:29 | -17.14714 | -53.58189 | 34054 ft | 461 kts | 301° |
| 2026-05-09 13:29 | -17.11281 | -53.63835 | 34055 ft | 462 kts | 301° |
| 2026-05-09 13:30 | -17.08507 | -53.68602 | 34055 ft | 461 kts | 298° |
| 2026-05-09 13:30 | -17.04926 | -53.75465 | 34053 ft | 461 kts | 297° |
| 2026-05-09 13:31 | -17.02377 | -53.80389 | 34058 ft | 461 kts | 298° |
| 2026-05-09 13:31 | -16.99329 | -53.86241 | 34049 ft | 461 kts | 298° |
| 2026-05-09 13:32 | -16.96248 | -53.92128 | 34050 ft | 461 kts | 298° |
| 2026-05-09 13:32 | -16.91639 | -54.00918 | 34043 ft | 461 kts | 298° |
| 2026-05-09 13:33 | -16.88549 | -54.06805 | 34045 ft | 460 kts | 298° |
| 2026-05-09 13:33 | -16.85484 | -54.12640 | 34040 ft | 460 kts | 298° |
| 2026-05-09 13:34 | -16.82389 | -54.18528 | 34040 ft | 461 kts | 298° |
| 2026-05-09 13:34 | -16.79313 | -54.24375 | 34037 ft | 461 kts | 298° |
| 2026-05-09 13:35 | -16.76214 | -54.30261 | 34037 ft | 461 kts | 298° |
| 2026-05-09 13:35 | -16.73122 | -54.36128 | 34031 ft | 461 kts | 298° |
| 2026-05-09 13:36 | -16.70042 | -54.41968 | 34032 ft | 461 kts | 298° |
| 2026-05-09 13:36 | -16.66947 | -54.47830 | 34032 ft | 460 kts | 298° |
| 2026-05-09 13:37 | -16.63860 | -54.53674 | 34034 ft | 460 kts | 298° |
| 2026-05-09 13:37 | -16.60785 | -54.59491 | 34029 ft | 460 kts | 298° |
| 2026-05-09 13:38 | -16.57622 | -54.65313 | 34028 ft | 461 kts | 301° |
| 2026-05-09 13:38 | -16.54149 | -54.70889 | 34031 ft | 461 kts | 302° |
| 2026-05-09 13:39 | -16.50612 | -54.76491 | 34029 ft | 462 kts | 302° |
| 2026-05-09 13:39 | -16.47094 | -54.82086 | 34032 ft | 462 kts | 302° |
| 2026-05-09 13:40 | -16.43579 | -54.87698 | 34025 ft | 463 kts | 302° |
| 2026-05-09 13:40 | -16.40061 | -54.93315 | 34036 ft | 464 kts | 302° |
| 2026-05-09 13:41 | -16.36519 | -54.98966 | 34030 ft | 464 kts | 302° |
| 2026-05-09 13:41 | -16.32993 | -55.04588 | 34036 ft | 464 kts | 302° |
| 2026-05-09 13:42 | -16.29475 | -55.10191 | 34028 ft | 464 kts | 302° |
| 2026-05-09 13:42 | -16.25966 | -55.15777 | 34029 ft | 463 kts | 302° |
| 2026-05-09 13:43 | -16.22428 | -55.21403 | 34027 ft | 463 kts | 302° |
| 2026-05-09 13:43 | -16.18904 | -55.27003 | 34030 ft | 462 kts | 302° |
| 2026-05-09 13:44 | -16.15391 | -55.32581 | 34029 ft | 462 kts | 302° |
| 2026-05-09 13:44 | -16.11863 | -55.38180 | 34031 ft | 462 kts | 302° |
| 2026-05-09 13:45 | -16.08336 | -55.43772 | 34027 ft | 462 kts | 302° |
| 2026-05-09 13:45 | -16.04812 | -55.49354 | 34025 ft | 462 kts | 302° |
| 2026-05-09 13:46 | -16.01293 | -55.54926 | 34024 ft | 462 kts | 302° |
| 2026-05-09 13:46 | -15.97759 | -55.60514 | 34024 ft | 462 kts | 302° |
| 2026-05-09 13:47 | -15.94229 | -55.66095 | 34020 ft | 463 kts | 302° |
| 2026-05-09 13:47 | -15.90684 | -55.71694 | 34020 ft | 463 kts | 302° |
| 2026-05-09 13:48 | -15.87143 | -55.77283 | 34016 ft | 464 kts | 302° |
| 2026-05-09 13:48 | -15.83598 | -55.82872 | 34013 ft | 464 kts | 302° |
| 2026-05-09 13:49 | -15.80062 | -55.88446 | 34026 ft | 463 kts | 302° |
| 2026-05-09 13:49 | -15.76519 | -55.94026 | 34037 ft | 463 kts | 302° |
| 2026-05-09 13:50 | -15.72962 | -55.99624 | 34044 ft | 463 kts | 302° |
| 2026-05-09 13:50 | -15.69415 | -56.05203 | 34051 ft | 464 kts | 302° |
| 2026-05-09 13:51 | -15.65892 | -56.10805 | 34048 ft | 464 kts | 300° |
| 2026-05-09 13:51 | -15.62997 | -56.16757 | 34058 ft | 463 kts | 295° |
| 2026-05-09 13:52 | -15.60259 | -56.22855 | 34048 ft | 464 kts | 295° |
| 2026-05-09 13:52 | -15.57519 | -56.28913 | 34035 ft | 464 kts | 295° |
| 2026-05-09 13:53 | -15.54759 | -56.34972 | 34031 ft | 465 kts | 295° |
| 2026-05-09 13:53 | -15.52005 | -56.40997 | 34032 ft | 464 kts | 295° |
| 2026-05-09 13:54 | -15.49239 | -56.47043 | 34030 ft | 464 kts | 295° |
| 2026-05-09 13:54 | -15.46478 | -56.53073 | 34030 ft | 463 kts | 295° |
| 2026-05-09 13:55 | -15.43719 | -56.59097 | 34035 ft | 462 kts | 295° |
| 2026-05-09 13:55 | -15.40958 | -56.65120 | 34033 ft | 462 kts | 295° |
| 2026-05-09 13:56 | -15.38200 | -56.71130 | 34037 ft | 461 kts | 295° |
| 2026-05-09 13:56 | -15.35448 | -56.77123 | 34039 ft | 461 kts | 295° |
| 2026-05-09 13:57 | -15.32704 | -56.83095 | 34031 ft | 461 kts | 295° |
| 2026-05-09 13:57 | -15.29939 | -56.89103 | 34038 ft | 460 kts | 295° |
| 2026-05-09 13:58 | -15.27191 | -56.95072 | 34035 ft | 460 kts | 295° |
| 2026-05-09 13:58 | -15.24439 | -57.01045 | 34028 ft | 460 kts | 295° |
| 2026-05-09 13:59 | -15.21678 | -57.07033 | 34027 ft | 460 kts | 295° |
| 2026-05-09 13:59 | -15.18927 | -57.12994 | 34023 ft | 461 kts | 295° |
| 2026-05-09 14:00 | -15.17079 | -57.16996 | 34027 ft | 461 kts | 295° |
| 2026-05-09 14:00 | -15.13390 | -57.24975 | 34016 ft | 461 kts | 295° |
| 2026-05-09 14:01 | -15.10610 | -57.30985 | 34022 ft | 461 kts | 295° |
| 2026-05-09 14:01 | -15.07846 | -57.36953 | 34020 ft | 461 kts | 295° |
| 2026-05-09 14:02 | -15.05074 | -57.42937 | 34025 ft | 461 kts | 295° |
| 2026-05-09 14:02 | -15.02305 | -57.48907 | 34018 ft | 461 kts | 295° |
| 2026-05-09 14:03 | -14.99525 | -57.54898 | 34016 ft | 461 kts | 295° |
| 2026-05-09 14:03 | -14.96738 | -57.60893 | 34022 ft | 461 kts | 295° |
| 2026-05-09 14:04 | -14.93960 | -57.66864 | 34018 ft | 462 kts | 295° |
| 2026-05-09 14:04 | -14.91177 | -57.72844 | 34020 ft | 462 kts | 295° |
| 2026-05-09 14:05 | -14.88387 | -57.78836 | 34020 ft | 462 kts | 295° |
| 2026-05-09 14:05 | -14.85591 | -57.84835 | 34021 ft | 463 kts | 295° |
| 2026-05-09 14:06 | -14.82795 | -57.90830 | 34023 ft | 463 kts | 295° |
| 2026-05-09 14:06 | -14.79994 | -57.96830 | 34022 ft | 463 kts | 295° |
| 2026-05-09 14:07 | -14.77195 | -58.02820 | 34031 ft | 463 kts | 295° |
| 2026-05-09 14:07 | -14.74396 | -58.08808 | 34030 ft | 463 kts | 295° |
| 2026-05-09 14:08 | -14.71609 | -58.14764 | 34030 ft | 463 kts | 295° |
| 2026-05-09 14:08 | -14.68790 | -58.20785 | 34032 ft | 463 kts | 295° |
| 2026-05-09 14:09 | -14.66002 | -58.26733 | 34033 ft | 463 kts | 295° |
| 2026-05-09 14:09 | -14.63189 | -58.32734 | 34032 ft | 463 kts | 295° |
| 2026-05-09 14:10 | -14.58976 | -58.41694 | 34033 ft | 463 kts | 295° |
| 2026-05-09 14:11 | -14.56149 | -58.47677 | 34041 ft | 463 kts | 295° |
| 2026-05-09 14:11 | -14.53321 | -58.53658 | 34033 ft | 463 kts | 295° |
| 2026-05-09 14:12 | -14.50503 | -58.59619 | 34035 ft | 462 kts | 295° |
| 2026-05-09 14:12 | -14.47690 | -58.65565 | 34036 ft | 462 kts | 295° |
| 2026-05-09 14:13 | -14.44866 | -58.71530 | 34036 ft | 462 kts | 295° |
| 2026-05-09 14:15 | -14.34066 | -58.94350 | 34063 ft | 464 kts | 295° |
| 2026-05-09 14:15 | -14.32180 | -58.98342 | 34374 ft | 465 kts | 295° |
| 2026-05-09 14:15 | -14.31231 | -59.00349 | 34634 ft | 463 kts | 295° |
| 2026-05-09 14:15 | -14.29838 | -59.03294 | 35050 ft | 460 kts | 295° |
| 2026-05-09 14:16 | -14.28438 | -59.06249 | 35453 ft | 457 kts | 295° |
| 2026-05-09 14:16 | -14.27035 | -59.09204 | 35814 ft | 455 kts | 295° |
| 2026-05-09 14:16 | -14.25641 | -59.12140 | 35962 ft | 457 kts | 295° |
| 2026-05-09 14:17 | -14.22859 | -59.17997 | 36031 ft | 457 kts | 295° |
| 2026-05-09 14:17 | -14.20070 | -59.23866 | 36036 ft | 454 kts | 295° |
| 2026-05-09 14:18 | -14.17296 | -59.29701 | 36032 ft | 453 kts | 295° |
| 2026-05-09 14:18 | -14.14527 | -59.35521 | 36038 ft | 452 kts | 295° |
| 2026-05-09 14:19 | -14.11763 | -59.41327 | 36029 ft | 452 kts | 295° |
| 2026-05-09 14:19 | -14.08978 | -59.47173 | 36033 ft | 453 kts | 295° |
| 2026-05-09 14:20 | -14.06209 | -59.52979 | 36024 ft | 454 kts | 295° |
| 2026-05-09 14:20 | -14.03420 | -59.58823 | 36026 ft | 455 kts | 295° |
| 2026-05-09 14:21 | -13.99214 | -59.67630 | 36024 ft | 456 kts | 295° |
| 2026-05-09 14:21 | -13.96421 | -59.73470 | 36009 ft | 456 kts | 295° |
| 2026-05-09 14:22 | -13.93624 | -59.79316 | 36019 ft | 457 kts | 295° |
| 2026-05-09 14:22 | -13.90818 | -59.85179 | 36020 ft | 457 kts | 295° |
| 2026-05-09 14:23 | -13.88005 | -59.91049 | 36016 ft | 457 kts | 295° |
| 2026-05-09 14:23 | -13.85203 | -59.96892 | 36019 ft | 456 kts | 295° |
| 2026-05-09 14:24 | -13.82385 | -60.02764 | 36018 ft | 456 kts | 294° |
| 2026-05-09 14:24 | -13.79581 | -60.08603 | 36011 ft | 456 kts | 294° |
| 2026-05-09 14:25 | -13.76783 | -60.14429 | 36013 ft | 455 kts | 294° |
| 2026-05-09 14:25 | -13.73977 | -60.20264 | 36013 ft | 455 kts | 294° |
| 2026-05-09 14:26 | -13.71173 | -60.26093 | 36012 ft | 455 kts | 294° |
| 2026-05-09 14:26 | -13.68361 | -60.31925 | 36006 ft | 454 kts | 294° |
| 2026-05-09 14:27 | -13.65553 | -60.37741 | 36011 ft | 454 kts | 294° |
| 2026-05-09 14:27 | -13.62738 | -60.43567 | 36013 ft | 453 kts | 294° |
| 2026-05-09 14:28 | -13.59942 | -60.49352 | 36011 ft | 453 kts | 294° |
| 2026-05-09 14:28 | -13.57130 | -60.55169 | 36013 ft | 453 kts | 294° |
| 2026-05-09 14:29 | -13.54332 | -60.60950 | 36014 ft | 453 kts | 294° |
| 2026-05-09 14:29 | -13.51515 | -60.66767 | 36008 ft | 453 kts | 294° |
| 2026-05-09 14:30 | -13.48707 | -60.72562 | 36018 ft | 453 kts | 294° |
| 2026-05-09 14:30 | -13.45915 | -60.78320 | 36012 ft | 453 kts | 294° |
| 2026-05-09 14:31 | -13.43109 | -60.84101 | 36016 ft | 452 kts | 294° |
| 2026-05-09 14:31 | -13.40296 | -60.89893 | 36014 ft | 452 kts | 294° |
| 2026-05-09 14:32 | -13.37493 | -60.95663 | 36010 ft | 452 kts | 294° |
| 2026-05-09 14:32 | -13.34684 | -61.01439 | 36010 ft | 452 kts | 294° |
| 2026-05-09 14:33 | -13.31860 | -61.07242 | 36007 ft | 452 kts | 294° |
| 2026-05-09 14:33 | -13.29066 | -61.12978 | 36011 ft | 451 kts | 294° |
| 2026-05-09 14:34 | -13.26247 | -61.18763 | 36007 ft | 451 kts | 294° |
| 2026-05-09 14:34 | -13.23449 | -61.24502 | 36009 ft | 450 kts | 293° |
| 2026-05-09 14:35 | -13.20644 | -61.30251 | 36010 ft | 450 kts | 293° |
| 2026-05-09 14:35 | -13.17843 | -61.35986 | 36003 ft | 449 kts | 293° |
| 2026-05-09 14:36 | -13.15059 | -61.41683 | 36008 ft | 449 kts | 293° |
| 2026-05-09 14:36 | -13.12259 | -61.47411 | 36005 ft | 448 kts | 293° |
| 2026-05-09 14:37 | -13.09460 | -61.53131 | 36006 ft | 448 kts | 293° |
| 2026-05-09 14:37 | -13.06672 | -61.58826 | 36005 ft | 448 kts | 293° |
| 2026-05-09 14:38 | -13.03882 | -61.64522 | 36005 ft | 447 kts | 292° |
| 2026-05-09 14:38 | -13.01087 | -61.70224 | 36009 ft | 447 kts | 292° |
| 2026-05-09 14:39 | -12.98292 | -61.75925 | 36004 ft | 447 kts | 292° |
| 2026-05-09 14:39 | -12.95494 | -61.81631 | 36004 ft | 447 kts | 292° |
| 2026-05-09 14:40 | -12.92709 | -61.87312 | 36007 ft | 447 kts | 292° |
| 2026-05-09 14:40 | -12.89918 | -61.93001 | 36005 ft | 446 kts | 292° |
| 2026-05-09 14:41 | -12.87140 | -61.98656 | 36008 ft | 446 kts | 292° |
| 2026-05-09 14:41 | -12.84353 | -62.04328 | 36007 ft | 446 kts | 292° |
| 2026-05-09 14:42 | -12.81551 | -62.10029 | 36009 ft | 446 kts | 292° |
| 2026-05-09 14:42 | -12.78777 | -62.15668 | 36007 ft | 446 kts | 292° |
| 2026-05-09 14:43 | -12.75969 | -62.21373 | 36007 ft | 446 kts | 292° |
| 2026-05-09 14:43 | -12.73178 | -62.27039 | 36010 ft | 446 kts | 292° |
| 2026-05-09 14:44 | -12.70393 | -62.32685 | 36012 ft | 446 kts | 292° |
| 2026-05-09 14:44 | -12.67593 | -62.38357 | 36010 ft | 446 kts | 292° |
| 2026-05-09 14:45 | -12.64800 | -62.44014 | 36010 ft | 445 kts | 292° |
| 2026-05-09 14:45 | -12.62006 | -62.49669 | 36011 ft | 445 kts | 292° |
| 2026-05-09 14:46 | -12.59204 | -62.55338 | 36011 ft | 445 kts | 292° |
| 2026-05-09 14:46 | -12.56423 | -62.60963 | 36010 ft | 445 kts | 292° |
| 2026-05-09 14:47 | -12.53612 | -62.66643 | 36009 ft | 445 kts | 292° |
| 2026-05-09 14:47 | -12.50828 | -62.72262 | 36009 ft | 445 kts | 292° |
| 2026-05-09 14:48 | -12.48019 | -62.77915 | 36008 ft | 445 kts | 292° |
| 2026-05-09 14:48 | -12.45211 | -62.83562 | 36006 ft | 445 kts | 292° |
| 2026-05-09 14:49 | -12.42395 | -62.89226 | 36006 ft | 445 kts | 292° |
| 2026-05-09 14:49 | -12.39602 | -62.94841 | 36007 ft | 445 kts | 292° |
| 2026-05-09 14:50 | -12.36785 | -63.00499 | 36010 ft | 445 kts | 292° |
| 2026-05-09 14:50 | -12.33970 | -63.06151 | 36005 ft | 446 kts | 292° |
| 2026-05-09 14:51 | -12.31159 | -63.11790 | 36007 ft | 446 kts | 292° |
| 2026-05-09 14:51 | -12.28348 | -63.17427 | 36007 ft | 446 kts | 292° |
| 2026-05-09 14:52 | -12.25535 | -63.23064 | 36005 ft | 446 kts | 292° |
| 2026-05-09 14:52 | -12.22710 | -63.28721 | 36005 ft | 446 kts | 292° |
| 2026-05-09 14:53 | -12.19877 | -63.34391 | 36004 ft | 446 kts | 292° |
| 2026-05-09 14:53 | -12.17051 | -63.40045 | 36003 ft | 447 kts | 292° |
| 2026-05-09 14:54 | -12.14235 | -63.45674 | 36005 ft | 447 kts | 292° |
| 2026-05-09 14:54 | -12.11394 | -63.51348 | 36001 ft | 447 kts | 292° |
| 2026-05-09 14:55 | -12.08554 | -63.57020 | 36006 ft | 447 kts | 292° |
| 2026-05-09 14:55 | -12.05727 | -63.62659 | 36002 ft | 447 kts | 292° |
| 2026-05-09 14:56 | -12.02898 | -63.68302 | 36007 ft | 448 kts | 292° |
| 2026-05-09 14:56 | -12.00059 | -63.73960 | 36003 ft | 448 kts | 292° |
| 2026-05-09 14:57 | -11.97203 | -63.79648 | 36005 ft | 448 kts | 292° |
| 2026-05-09 14:57 | -11.94365 | -63.85299 | 36004 ft | 449 kts | 292° |
| 2026-05-09 14:58 | -11.91993 | -63.90019 | 36003 ft | 449 kts | 292° |
| 2026-05-09 14:58 | -11.89139 | -63.95695 | 36006 ft | 449 kts | 292° |
| 2026-05-09 14:59 | -11.86275 | -64.01393 | 36009 ft | 449 kts | 292° |
| 2026-05-09 14:59 | -11.83425 | -64.07061 | 36009 ft | 450 kts | 292° |
| 2026-05-09 15:00 | -11.80572 | -64.12734 | 36001 ft | 450 kts | 292° |
| 2026-05-09 15:00 | -11.77708 | -64.18424 | 36007 ft | 450 kts | 292° |
| 2026-05-09 15:01 | -11.73430 | -64.26917 | 36014 ft | 451 kts | 292° |
| 2026-05-09 15:02 | -11.70565 | -64.32603 | 35999 ft | 451 kts | 292° |
| 2026-05-09 15:02 | -11.67681 | -64.38320 | 36005 ft | 451 kts | 292° |
| 2026-05-09 15:03 | -11.64806 | -64.44018 | 36002 ft | 451 kts | 292° |
| 2026-05-09 15:03 | -11.61946 | -64.49681 | 36015 ft | 452 kts | 292° |
| 2026-05-09 15:04 | -11.59051 | -64.55412 | 35996 ft | 453 kts | 292° |
| 2026-05-09 15:06 | -11.47512 | -64.78216 | 36011 ft | 454 kts | 293° |
| 2026-05-09 15:06 | -11.44607 | -64.83948 | 36011 ft | 454 kts | 293° |
| 2026-05-09 15:07 | -11.41720 | -64.89643 | 36009 ft | 454 kts | 293° |
| 2026-05-09 15:07 | -11.38811 | -64.95376 | 35993 ft | 455 kts | 293° |
| 2026-05-09 15:08 | -11.35899 | -65.01112 | 36010 ft | 455 kts | 293° |
| 2026-05-09 15:08 | -11.31548 | -65.09677 | 36004 ft | 455 kts | 293° |
| 2026-05-09 15:10 | -11.19886 | -65.32602 | 36004 ft | 456 kts | 293° |
| 2026-05-09 15:11 | -11.16950 | -65.38366 | 35999 ft | 456 kts | 293° |
| 2026-05-09 15:11 | -11.14034 | -65.44093 | 36005 ft | 457 kts | 293° |
| 2026-05-09 15:12 | -11.11106 | -65.49847 | 36004 ft | 457 kts | 293° |
| 2026-05-09 15:12 | -11.08177 | -65.55602 | 35998 ft | 457 kts | 294° |
| 2026-05-09 15:13 | -11.05248 | -65.61351 | 36005 ft | 458 kts | 294° |
| 2026-05-09 15:13 | -11.02322 | -65.67090 | 36002 ft | 458 kts | 294° |
| 2026-05-09 15:14 | -10.99395 | -65.72831 | 36003 ft | 458 kts | 294° |
| 2026-05-09 15:14 | -10.96452 | -65.78598 | 36008 ft | 458 kts | 294° |
| 2026-05-09 15:15 | -10.93502 | -65.84375 | 36013 ft | 458 kts | 294° |
| 2026-05-09 15:15 | -10.90581 | -65.90093 | 36013 ft | 458 kts | 294° |
| 2026-05-09 15:16 | -10.87635 | -65.95855 | 36017 ft | 458 kts | 294° |
| 2026-05-09 15:16 | -10.84695 | -66.01605 | 36016 ft | 458 kts | 294° |
| 2026-05-09 15:17 | -10.81759 | -66.07342 | 36012 ft | 457 kts | 294° |
| 2026-05-09 15:17 | -10.78817 | -66.13087 | 36009 ft | 457 kts | 294° |
| 2026-05-09 15:18 | -10.75876 | -66.18829 | 36009 ft | 457 kts | 294° |
| 2026-05-09 15:18 | -10.72936 | -66.24565 | 36005 ft | 457 kts | 294° |
| 2026-05-09 15:19 | -10.69997 | -66.30294 | 36000 ft | 458 kts | 294° |
| 2026-05-09 15:19 | -10.67060 | -66.36019 | 36004 ft | 458 kts | 294° |
| 2026-05-09 15:20 | -10.62642 | -66.44623 | 36004 ft | 459 kts | 294° |
| 2026-05-09 15:21 | -10.59686 | -66.50375 | 36002 ft | 459 kts | 294° |
| 2026-05-09 15:21 | -10.56719 | -66.56147 | 36001 ft | 459 kts | 294° |
| 2026-05-09 15:22 | -10.53769 | -66.61880 | 36001 ft | 459 kts | 294° |
| 2026-05-09 15:22 | -10.50811 | -66.67628 | 35999 ft | 460 kts | 294° |
| 2026-05-09 15:23 | -10.47844 | -66.73390 | 36000 ft | 460 kts | 294° |
| 2026-05-09 15:23 | -10.44871 | -66.79160 | 36001 ft | 460 kts | 294° |
| 2026-05-09 15:24 | -10.41920 | -66.84886 | 35999 ft | 460 kts | 295° |
| 2026-05-09 15:24 | -10.38935 | -66.90673 | 35998 ft | 460 kts | 295° |
| 2026-05-09 15:25 | -10.35965 | -66.96429 | 35998 ft | 461 kts | 295° |
| 2026-05-09 15:25 | -10.33000 | -67.02173 | 35998 ft | 461 kts | 295° |
| 2026-05-09 15:26 | -10.28530 | -67.10825 | 35997 ft | 462 kts | 295° |
| 2026-05-09 15:26 | -10.25546 | -67.16636 | 36003 ft | 462 kts | 295° |
| 2026-05-09 15:27 | -10.22577 | -67.22438 | 35997 ft | 463 kts | 295° |
| 2026-05-09 15:27 | -10.19619 | -67.28216 | 36002 ft | 464 kts | 295° |
| 2026-05-09 15:28 | -10.16638 | -67.34029 | 35999 ft | 464 kts | 295° |
| 2026-05-09 15:28 | -10.13653 | -67.39846 | 36001 ft | 464 kts | 295° |
| 2026-05-09 15:29 | -10.10684 | -67.45629 | 36002 ft | 465 kts | 295° |
| 2026-05-09 15:29 | -10.07677 | -67.51484 | 36001 ft | 465 kts | 295° |
| 2026-05-09 15:30 | -10.04682 | -67.57313 | 36000 ft | 465 kts | 295° |
| 2026-05-09 15:30 | -10.01701 | -67.63109 | 35997 ft | 466 kts | 295° |
| 2026-05-09 15:31 | -9.98706 | -67.68933 | 35996 ft | 466 kts | 295° |
| 2026-05-09 15:31 | -9.95712 | -67.74749 | 35994 ft | 466 kts | 295° |
| 2026-05-09 15:32 | -9.92715 | -67.80571 | 35996 ft | 466 kts | 295° |
| 2026-05-09 15:32 | -9.89683 | -67.86395 | 35996 ft | 467 kts | 298° |
| 2026-05-09 15:33 | -9.85833 | -67.91728 | 35997 ft | 470 kts | 308° |
| 2026-05-09 15:33 | -9.81116 | -67.96380 | 36001 ft | 473 kts | 316° |
| 2026-05-09 15:34 | -9.76123 | -68.00728 | 35999 ft | 474 kts | 316° |
| 2026-05-09 15:34 | -9.71139 | -68.05076 | 36012 ft | 475 kts | 316° |
| 2026-05-09 15:35 | -9.66140 | -68.09483 | 35991 ft | 476 kts | 316° |
| 2026-05-09 15:35 | -9.61133 | -68.13915 | 35996 ft | 475 kts | 316° |
| 2026-05-09 15:36 | -9.56183 | -68.18295 | 36000 ft | 475 kts | 316° |
| 2026-05-09 15:36 | -9.51208 | -68.22691 | 36000 ft | 474 kts | 316° |
| 2026-05-09 15:37 | -9.46248 | -68.27073 | 36000 ft | 474 kts | 316° |
| 2026-05-09 15:37 | -9.41264 | -68.31475 | 35999 ft | 473 kts | 316° |
| 2026-05-09 15:38 | -9.36258 | -68.35776 | 35993 ft | 474 kts | 320° |
| 2026-05-09 15:38 | -9.30917 | -68.39741 | 36004 ft | 474 kts | 321° |
| 2026-05-09 15:39 | -9.25564 | -68.43651 | 36004 ft | 474 kts | 321° |
| 2026-05-09 15:39 | -9.20206 | -68.47585 | 36000 ft | 474 kts | 321° |
| 2026-05-09 15:40 | -9.14903 | -68.51498 | 35998 ft | 474 kts | 321° |
| 2026-05-09 15:40 | -9.09583 | -68.55431 | 36000 ft | 474 kts | 321° |
| 2026-05-09 15:41 | -9.05110 | -68.58735 | 35996 ft | 474 kts | 321° |
| 2026-05-09 15:41 | -8.99795 | -68.62659 | 36004 ft | 474 kts | 321° |
| 2026-05-09 15:42 | -8.94461 | -68.66596 | 35997 ft | 474 kts | 321° |
| 2026-05-09 15:42 | -8.89140 | -68.70521 | 35998 ft | 474 kts | 321° |
| 2026-05-09 15:43 | -8.83810 | -68.74451 | 36002 ft | 474 kts | 321° |
| 2026-05-09 15:43 | -8.78456 | -68.78398 | 35994 ft | 474 kts | 321° |
| 2026-05-09 15:44 | -8.73143 | -68.82312 | 36003 ft | 474 kts | 321° |
| 2026-05-09 15:44 | -8.67814 | -68.86238 | 35999 ft | 475 kts | 321° |
| 2026-05-09 15:45 | -8.62483 | -68.90163 | 35999 ft | 475 kts | 321° |
| 2026-05-09 15:45 | -8.57145 | -68.94092 | 36000 ft | 475 kts | 321° |
| 2026-05-09 15:46 | -8.51810 | -68.98017 | 36001 ft | 475 kts | 321° |
| 2026-05-09 15:46 | -8.46461 | -69.01952 | 35999 ft | 475 kts | 321° |
| 2026-05-09 15:47 | -8.41103 | -69.05892 | 35999 ft | 475 kts | 322° |
| 2026-05-09 15:47 | -8.35776 | -69.09807 | 36000 ft | 475 kts | 322° |
| 2026-05-09 15:48 | -8.30437 | -69.13730 | 35998 ft | 475 kts | 322° |
| 2026-05-09 15:48 | -8.25096 | -69.17653 | 35996 ft | 476 kts | 322° |
| 2026-05-09 15:49 | -8.19726 | -69.21596 | 35997 ft | 476 kts | 322° |
| 2026-05-09 15:49 | -8.14375 | -69.25524 | 35996 ft | 476 kts | 322° |
| 2026-05-09 15:50 | -8.09025 | -69.29450 | 35997 ft | 476 kts | 322° |
| 2026-05-09 15:50 | -8.03652 | -69.33391 | 35997 ft | 476 kts | 322° |
| 2026-05-09 15:51 | -7.98309 | -69.37309 | 35993 ft | 477 kts | 322° |
| 2026-05-09 15:51 | -7.92932 | -69.41251 | 35995 ft | 477 kts | 322° |
| 2026-05-09 15:52 | -7.84877 | -69.47152 | 35994 ft | 477 kts | 322° |
| 2026-05-09 15:53 | -7.79509 | -69.51084 | 35998 ft | 477 kts | 322° |
| 2026-05-09 15:53 | -7.74137 | -69.55018 | 35995 ft | 477 kts | 322° |
| 2026-05-09 15:54 | -7.68779 | -69.58940 | 35994 ft | 477 kts | 322° |
| 2026-05-09 15:54 | -7.63385 | -69.62887 | 35991 ft | 477 kts | 322° |
| 2026-05-09 15:55 | -7.58053 | -69.66787 | 35992 ft | 476 kts | 322° |
| 2026-05-09 15:55 | -7.52678 | -69.70718 | 35991 ft | 475 kts | 322° |
| 2026-05-09 15:56 | -7.47352 | -69.74612 | 35991 ft | 475 kts | 322° |
| 2026-05-09 15:56 | -7.41997 | -69.78526 | 35987 ft | 474 kts | 322° |
| 2026-05-09 15:57 | -7.36662 | -69.82425 | 35989 ft | 474 kts | 322° |
| 2026-05-09 15:57 | -7.31332 | -69.86319 | 35985 ft | 474 kts | 322° |
| 2026-05-09 15:58 | -7.25987 | -69.90221 | 35989 ft | 474 kts | 322° |
| 2026-05-09 15:58 | -7.20641 | -69.94122 | 35981 ft | 474 kts | 322° |
| 2026-05-09 15:59 | -7.15303 | -69.98017 | 35982 ft | 474 kts | 322° |
| 2026-05-09 15:59 | -7.09957 | -70.01917 | 35980 ft | 474 kts | 322° |
| 2026-05-09 16:00 | -7.04627 | -70.05805 | 35984 ft | 474 kts | 322° |
| 2026-05-09 16:00 | -6.99271 | -70.09711 | 35978 ft | 474 kts | 322° |
| 2026-05-09 16:01 | -6.93943 | -70.13595 | 35982 ft | 474 kts | 322° |
| 2026-05-09 16:01 | -6.88608 | -70.17483 | 35976 ft | 474 kts | 322° |
| 2026-05-09 16:02 | -6.83256 | -70.21382 | 35985 ft | 474 kts | 322° |
| 2026-05-09 16:02 | -6.75251 | -70.27214 | 35984 ft | 475 kts | 322° |
| 2026-05-09 16:03 | -6.69867 | -70.31134 | 35981 ft | 475 kts | 322° |
| 2026-05-09 16:03 | -6.64535 | -70.35015 | 35979 ft | 476 kts | 322° |
| 2026-05-09 16:04 | -6.59155 | -70.38930 | 35980 ft | 476 kts | 322° |
| 2026-05-09 16:04 | -6.53784 | -70.42838 | 35977 ft | 476 kts | 322° |
| 2026-05-09 16:05 | -6.48429 | -70.46733 | 35977 ft | 476 kts | 322° |
| 2026-05-09 16:05 | -6.43058 | -70.50638 | 35978 ft | 476 kts | 322° |
| 2026-05-09 16:06 | -6.37693 | -70.54537 | 35979 ft | 476 kts | 322° |
| 2026-05-09 16:06 | -6.32333 | -70.58433 | 35980 ft | 476 kts | 322° |
| 2026-05-09 16:07 | -6.26927 | -70.62361 | 35981 ft | 477 kts | 322° |
| 2026-05-09 16:07 | -6.21566 | -70.66255 | 35977 ft | 477 kts | 322° |
| 2026-05-09 16:08 | -6.16203 | -70.70150 | 35978 ft | 477 kts | 322° |
| 2026-05-09 16:08 | -6.10791 | -70.74080 | 35977 ft | 477 kts | 322° |
| 2026-05-09 16:09 | -6.05419 | -70.77980 | 35980 ft | 478 kts | 322° |
| 2026-05-09 16:09 | -6.00050 | -70.81876 | 35977 ft | 478 kts | 322° |
| 2026-05-09 16:10 | -5.94653 | -70.85794 | 35981 ft | 478 kts | 322° |
| 2026-05-09 16:10 | -5.89248 | -70.89719 | 35979 ft | 478 kts | 322° |
| 2026-05-09 16:11 | -5.83867 | -70.93626 | 35978 ft | 479 kts | 322° |
| 2026-05-09 16:11 | -5.78481 | -70.97536 | 35977 ft | 479 kts | 322° |
| 2026-05-09 16:12 | -5.73080 | -71.01456 | 35976 ft | 478 kts | 322° |
| 2026-05-09 16:12 | -5.67718 | -71.05346 | 35979 ft | 478 kts | 322° |
| 2026-05-09 16:13 | -5.62308 | -71.09270 | 35979 ft | 478 kts | 322° |
| 2026-05-09 16:13 | -5.56913 | -71.13184 | 35982 ft | 477 kts | 322° |
| 2026-05-09 16:14 | -5.51561 | -71.17061 | 35983 ft | 477 kts | 322° |
| 2026-05-09 16:14 | -5.46176 | -71.20956 | 35980 ft | 477 kts | 322° |
| 2026-05-09 16:15 | -5.40784 | -71.24856 | 35981 ft | 477 kts | 322° |
| 2026-05-09 16:15 | -5.35382 | -71.28764 | 35981 ft | 477 kts | 322° |
| 2026-05-09 16:16 | -5.30029 | -71.32637 | 35979 ft | 477 kts | 322° |
| 2026-05-09 16:16 | -5.24644 | -71.36532 | 35978 ft | 478 kts | 322° |
| 2026-05-09 16:17 | -5.19244 | -71.40436 | 35975 ft | 478 kts | 322° |
| 2026-05-09 16:17 | -5.13833 | -71.44348 | 35974 ft | 478 kts | 322° |
| 2026-05-09 16:18 | -5.08433 | -71.48251 | 35974 ft | 479 kts | 322° |
| 2026-05-09 16:18 | -5.03057 | -71.52136 | 35971 ft | 479 kts | 322° |
| 2026-05-09 16:19 | -4.97629 | -71.56057 | 35971 ft | 479 kts | 322° |
| 2026-05-09 16:19 | -4.92216 | -71.59967 | 35979 ft | 480 kts | 322° |
| 2026-05-09 16:20 | -4.86801 | -71.63878 | 35968 ft | 480 kts | 322° |
| 2026-05-09 16:20 | -4.81365 | -71.67802 | 35971 ft | 480 kts | 322° |
| 2026-05-09 16:21 | -4.75954 | -71.71709 | 35967 ft | 480 kts | 322° |
| 2026-05-09 16:21 | -4.70510 | -71.75638 | 35969 ft | 480 kts | 322° |
| 2026-05-09 16:22 | -4.65079 | -71.79558 | 35968 ft | 480 kts | 322° |
| 2026-05-09 16:22 | -4.59653 | -71.83474 | 35967 ft | 481 kts | 322° |
| 2026-05-09 16:23 | -4.55158 | -71.86747 | 35960 ft | 480 kts | 319° |
| 2026-05-09 16:23 | -4.49940 | -71.92450 | 35963 ft | 475 kts | 303° |
| 2026-05-09 16:24 | -4.46763 | -71.98195 | 35966 ft | 473 kts | 295° |
| 2026-05-09 16:24 | -4.43850 | -72.04117 | 35962 ft | 473 kts | 295° |
| 2026-05-09 16:25 | -4.41405 | -72.09059 | 35962 ft | 474 kts | 295° |
| 2026-05-09 16:25 | -4.38450 | -72.14951 | 35959 ft | 474 kts | 295° |
| 2026-05-09 16:26 | -4.35480 | -72.20831 | 35958 ft | 475 kts | 295° |
| 2026-05-09 16:26 | -4.32487 | -72.26748 | 35959 ft | 475 kts | 295° |
| 2026-05-09 16:27 | -4.29501 | -72.32654 | 35956 ft | 476 kts | 295° |
| 2026-05-09 16:27 | -4.26500 | -72.38590 | 35957 ft | 476 kts | 295° |
| 2026-05-09 16:28 | -4.23526 | -72.44472 | 35952 ft | 476 kts | 295° |
| 2026-05-09 16:28 | -4.20535 | -72.50386 | 35958 ft | 476 kts | 295° |
| 2026-05-09 16:29 | -4.17548 | -72.56291 | 35958 ft | 476 kts | 295° |
| 2026-05-09 16:29 | -4.14558 | -72.62202 | 35952 ft | 476 kts | 295° |
| 2026-05-09 16:30 | -4.11567 | -72.68111 | 35955 ft | 476 kts | 295° |
| 2026-05-09 16:30 | -4.08572 | -72.74028 | 35950 ft | 476 kts | 295° |
| 2026-05-09 16:31 | -4.05586 | -72.79927 | 35954 ft | 475 kts | 295° |
| 2026-05-09 16:31 | -4.02594 | -72.85835 | 35947 ft | 475 kts | 295° |
| 2026-05-09 16:32 | -3.99605 | -72.91737 | 35948 ft | 475 kts | 295° |
| 2026-05-09 16:32 | -3.96604 | -72.97661 | 35945 ft | 476 kts | 295° |
| 2026-05-09 16:33 | -3.93621 | -73.03548 | 35948 ft | 476 kts | 295° |
| 2026-05-09 16:33 | -3.90627 | -73.09454 | 35956 ft | 476 kts | 295° |
| 2026-05-09 16:34 | -3.87624 | -73.15379 | 35964 ft | 476 kts | 295° |
| 2026-05-09 16:34 | -3.84638 | -73.21272 | 35953 ft | 478 kts | 295° |
| 2026-05-09 16:35 | -3.81625 | -73.27213 | 35966 ft | 478 kts | 295° |
| 2026-05-09 16:35 | -3.78479 | -73.33089 | 35965 ft | 479 kts | 301° |
| 2026-05-09 16:36 | -3.70901 | -73.44005 | 35961 ft | 478 kts | 303° |
| 2026-05-09 16:37 | -3.67126 | -73.49484 | 35977 ft | 478 kts | 303° |
| 2026-05-09 16:37 | -3.63354 | -73.54980 | 35945 ft | 478 kts | 303° |
| 2026-05-09 16:38 | -3.59600 | -73.60475 | 35938 ft | 476 kts | 303° |
| 2026-05-09 16:38 | -3.55871 | -73.65936 | 35935 ft | 474 kts | 303° |
| 2026-05-09 16:39 | -3.52165 | -73.71361 | 35940 ft | 473 kts | 303° |
| 2026-05-09 16:39 | -3.48465 | -73.76774 | 35942 ft | 473 kts | 303° |
| 2026-05-09 16:40 | -3.44741 | -73.82221 | 35943 ft | 473 kts | 303° |
| 2026-05-09 16:42 | -3.29811 | -74.04049 | 35942 ft | 476 kts | 303° |
| 2026-05-09 16:42 | -3.26083 | -74.09498 | 35945 ft | 477 kts | 303° |
| 2026-05-09 16:43 | -3.22332 | -74.14980 | 35946 ft | 477 kts | 303° |
| 2026-05-09 16:43 | -3.18591 | -74.20445 | 35944 ft | 477 kts | 303° |
| 2026-05-09 16:44 | -3.14823 | -74.25950 | 35944 ft | 477 kts | 303° |
| 2026-05-09 16:44 | -3.11099 | -74.31389 | 35945 ft | 477 kts | 303° |
| 2026-05-09 16:45 | -3.07326 | -74.36899 | 35941 ft | 477 kts | 303° |
| 2026-05-09 16:45 | -3.03597 | -74.42345 | 35946 ft | 476 kts | 303° |
| 2026-05-09 16:46 | -2.99846 | -74.47821 | 35944 ft | 476 kts | 303° |
| 2026-05-09 16:46 | -2.96114 | -74.53270 | 35946 ft | 476 kts | 303° |
| 2026-05-09 16:47 | -2.92357 | -74.58754 | 35943 ft | 476 kts | 303° |
| 2026-05-09 16:47 | -2.88605 | -74.64228 | 35948 ft | 477 kts | 303° |
| 2026-05-09 16:48 | -2.84867 | -74.69682 | 35947 ft | 477 kts | 303° |
| 2026-05-09 16:48 | -2.81104 | -74.75173 | 35947 ft | 477 kts | 303° |
| 2026-05-09 16:49 | -2.77363 | -74.80631 | 35949 ft | 478 kts | 303° |
| 2026-05-09 16:50 | -2.71710 | -74.88877 | 35945 ft | 478 kts | 303° |
| 2026-05-09 16:50 | -2.67940 | -74.94375 | 35948 ft | 478 kts | 303° |
| 2026-05-09 16:51 | -2.64189 | -74.99844 | 35948 ft | 479 kts | 303° |
| 2026-05-09 16:51 | -2.60418 | -75.05342 | 35944 ft | 479 kts | 303° |
| 2026-05-09 16:52 | -2.56648 | -75.10839 | 35943 ft | 479 kts | 303° |
| 2026-05-09 16:52 | -2.52871 | -75.16344 | 35946 ft | 479 kts | 303° |
| 2026-05-09 16:53 | -2.49104 | -75.21836 | 35939 ft | 479 kts | 303° |
| 2026-05-09 16:53 | -2.45343 | -75.27318 | 35943 ft | 479 kts | 303° |
| 2026-05-09 16:54 | -2.41577 | -75.32805 | 35941 ft | 479 kts | 303° |
| 2026-05-09 16:54 | -2.37783 | -75.38326 | 35941 ft | 479 kts | 303° |
| 2026-05-09 16:55 | -2.34013 | -75.43811 | 35945 ft | 480 kts | 303° |
| 2026-05-09 16:55 | -2.30230 | -75.49317 | 35942 ft | 480 kts | 303° |
| 2026-05-09 16:56 | -2.26464 | -75.54798 | 35945 ft | 480 kts | 303° |
| 2026-05-09 16:56 | -2.22673 | -75.60314 | 35946 ft | 480 kts | 303° |
| 2026-05-09 16:57 | -2.18917 | -75.65779 | 35948 ft | 480 kts | 303° |
| 2026-05-09 16:57 | -2.15123 | -75.71300 | 35949 ft | 479 kts | 303° |
| 2026-05-09 16:58 | -2.11362 | -75.76771 | 35953 ft | 479 kts | 303° |
| 2026-05-09 16:58 | -2.07577 | -75.82276 | 35950 ft | 480 kts | 303° |
| 2026-05-09 16:59 | -2.03806 | -75.87762 | 35953 ft | 480 kts | 303° |
| 2026-05-09 16:59 | -2.00017 | -75.93272 | 35948 ft | 480 kts | 303° |
| 2026-05-09 17:00 | -1.96090 | -75.98632 | 35946 ft | 480 kts | 306° |
| 2026-05-09 17:00 | -1.91999 | -76.03916 | 35948 ft | 480 kts | 307° |
| 2026-05-09 17:01 | -1.87900 | -76.09230 | 35953 ft | 480 kts | 306° |
| 2026-05-09 17:01 | -1.83854 | -76.14531 | 35947 ft | 480 kts | 306° |
| 2026-05-09 17:02 | -1.79818 | -76.19843 | 35950 ft | 480 kts | 306° |
| 2026-05-09 17:02 | -1.75798 | -76.25136 | 35960 ft | 480 kts | 306° |
| 2026-05-09 17:03 | -1.71758 | -76.30452 | 35953 ft | 480 kts | 306° |
| 2026-05-09 17:05 | -1.55593 | -76.51711 | 35952 ft | 480 kts | 306° |
| 2026-05-09 17:05 | -1.51572 | -76.57000 | 35956 ft | 480 kts | 306° |
| 2026-05-09 17:06 | -1.47529 | -76.62316 | 35956 ft | 480 kts | 306° |
| 2026-05-09 17:06 | -1.43472 | -76.67648 | 35957 ft | 480 kts | 306° |
| 2026-05-09 17:07 | -1.39431 | -76.72961 | 35956 ft | 480 kts | 306° |
| 2026-05-09 17:07 | -1.35409 | -76.78249 | 35958 ft | 480 kts | 306° |
| 2026-05-09 17:08 | -1.31349 | -76.83585 | 35958 ft | 480 kts | 306° |
| 2026-05-09 17:08 | -1.25307 | -76.91527 | 35961 ft | 480 kts | 306° |
| 2026-05-09 17:09 | -1.21944 | -76.95947 | 35958 ft | 480 kts | 306° |
| 2026-05-09 17:09 | -1.17901 | -77.01260 | 35963 ft | 480 kts | 306° |
| 2026-05-09 17:10 | -1.13864 | -77.06566 | 35961 ft | 480 kts | 306° |
| 2026-05-09 17:10 | -1.09803 | -77.11903 | 35964 ft | 480 kts | 306° |
| 2026-05-09 17:11 | -1.05783 | -77.17186 | 35962 ft | 480 kts | 306° |
| 2026-05-09 17:11 | -1.01726 | -77.22516 | 35969 ft | 480 kts | 306° |
| 2026-05-09 17:12 | -0.97689 | -77.27820 | 35972 ft | 480 kts | 306° |
| 2026-05-09 17:12 | -0.93659 | -77.33116 | 35982 ft | 481 kts | 306° |
| 2026-05-09 17:13 | -0.89593 | -77.38458 | 35987 ft | 481 kts | 306° |
| 2026-05-09 17:13 | -0.85543 | -77.43779 | 36001 ft | 481 kts | 306° |
| 2026-05-09 17:14 | -0.81508 | -77.49080 | 36024 ft | 481 kts | 306° |
| 2026-05-09 17:14 | -0.77447 | -77.54416 | 36043 ft | 482 kts | 306° |
| 2026-05-09 17:15 | -0.73385 | -77.59753 | 36069 ft | 482 kts | 306° |
| 2026-05-09 17:15 | -0.69317 | -77.65094 | 36116 ft | 482 kts | 306° |
| 2026-05-09 17:17 | -0.52918 | -77.86624 | 33030 ft | 496 kts | 308° |
| 2026-05-09 17:18 | -0.50823 | -77.89370 | 32092 ft | 498 kts | 307° |
| 2026-05-09 17:18 | -0.48695 | -77.92160 | 31105 ft | 502 kts | 307° |
| 2026-05-09 17:18 | -0.46586 | -77.94927 | 30335 ft | 502 kts | 306° |
| 2026-05-09 17:18 | -0.44474 | -77.97699 | 29534 ft | 499 kts | 306° |
| 2026-05-09 17:19 | -0.42389 | -78.00437 | 28811 ft | 495 kts | 306° |
| 2026-05-09 17:19 | -0.40311 | -78.03165 | 28140 ft | 492 kts | 306° |
| 2026-05-09 17:19 | -0.38238 | -78.05888 | 27471 ft | 488 kts | 306° |
| 2026-05-09 17:19 | -0.36197 | -78.08566 | 26818 ft | 484 kts | 306° |
| 2026-05-09 17:20 | -0.34145 | -78.11259 | 26137 ft | 481 kts | 305° |
| 2026-05-09 17:20 | -0.32140 | -78.13893 | 25484 ft | 478 kts | 305° |
| 2026-05-09 17:20 | -0.30144 | -78.16514 | 24816 ft | 475 kts | 305° |
| 2026-05-09 17:20 | -0.28149 | -78.19134 | 24118 ft | 474 kts | 305° |
| 2026-05-09 17:21 | -0.26142 | -78.21771 | 23372 ft | 472 kts | 305° |
| 2026-05-09 17:21 | -0.24157 | -78.24378 | 22679 ft | 468 kts | 305° |
| 2026-05-09 17:21 | -0.22240 | -78.26892 | 22052 ft | 453 kts | 305° |
| 2026-05-09 17:21 | -0.20336 | -78.29392 | 21460 ft | 449 kts | 306° |
| 2026-05-09 17:22 | -0.18449 | -78.31870 | 20888 ft | 446 kts | 306° |
| 2026-05-09 17:22 | -0.16906 | -78.34481 | 20301 ft | 437 kts | 289° |
| 2026-05-09 17:22 | -0.16277 | -78.37413 | 19756 ft | 432 kts | 271° |
| 2026-05-09 17:22 | -0.16537 | -78.40384 | 19230 ft | 428 kts | 255° |
| 2026-05-09 17:23 | -0.17580 | -78.43089 | 19049 ft | 414 kts | 239° |
| 2026-05-09 17:23 | -0.19251 | -78.45364 | 18935 ft | 397 kts | 225° |
| 2026-05-09 17:23 | -0.21231 | -78.47199 | 18627 ft | 375 kts | 214° |
| 2026-05-09 17:23 | -0.23460 | -78.48376 | 18066 ft | 351 kts | 195° |
| 2026-05-09 17:25 | -0.34217 | -78.48486 | 15553 ft | 280 kts | 172° |
| 2026-05-09 17:25 | -0.36113 | -78.48306 | 15161 ft | 266 kts | 166° |
| 2026-05-09 17:25 | -0.37793 | -78.47712 | 14870 ft | 246 kts | 145° |
| 2026-05-09 17:25 | -0.39155 | -78.46682 | 14711 ft | 246 kts | 134° |
| 2026-05-09 17:26 | -0.40336 | -78.45493 | 14499 ft | 243 kts | 132° |
| 2026-05-09 17:26 | -0.41488 | -78.44266 | 14290 ft | 236 kts | 130° |
| 2026-05-09 17:26 | -0.42387 | -78.42963 | 13963 ft | 228 kts | 103° |
| 2026-05-09 17:26 | -0.42353 | -78.41422 | 13730 ft | 223 kts | 73° |
| 2026-05-09 17:27 | -0.41594 | -78.40089 | 13501 ft | 221 kts | 50° |
| 2026-05-09 17:27 | -0.40331 | -78.39199 | 13147 ft | 227 kts | 31° |
| 2026-05-09 17:27 | -0.38885 | -78.38557 | 12818 ft | 224 kts | 27° |
| 2026-05-09 17:27 | -0.37480 | -78.37963 | 12558 ft | 213 kts | 27° |
| 2026-05-09 17:28 | -0.36160 | -78.37393 | 12264 ft | 201 kts | 29° |
| 2026-05-09 17:28 | -0.34926 | -78.36846 | 12019 ft | 188 kts | 29° |
| 2026-05-09 17:28 | -0.33742 | -78.36316 | 11808 ft | 190 kts | 28° |
| 2026-05-09 17:28 | -0.32502 | -78.35755 | 11635 ft | 200 kts | 26° |
| 2026-05-09 17:29 | -0.31220 | -78.35175 | 11372 ft | 203 kts | 25° |
| 2026-05-09 17:29 | -0.29875 | -78.34830 | 11101 ft | 195 kts | 2° |
| 2026-05-09 17:29 | -0.28527 | -78.34792 | 10904 ft | 196 kts | 0° |
| 2026-05-09 17:29 | -0.27158 | -78.34813 | 10597 ft | 198 kts | 358° |
| 2026-05-09 17:30 | -0.25794 | -78.34867 | 10312 ft | 191 kts | 358° |
| 2026-05-09 17:30 | -0.24502 | -78.34923 | 10073 ft | 180 kts | 359° |
| 2026-05-09 17:30 | -0.23249 | -78.34977 | 9829 ft | 180 kts | 359° |
| 2026-05-09 17:30 | -0.22029 | -78.35030 | 9585 ft | 173 kts | 0° |
| 2026-05-09 17:31 | -0.20861 | -78.35080 | 9342 ft | 164 kts | 2° |
| 2026-05-09 17:31 | -0.19714 | -78.35130 | 9142 ft | 168 kts | 1° |
| 2026-05-09 17:32 | -0.14992 | -78.35329 | 8142 ft | 174 kts | 355° |
| 2026-05-09 17:32 | -0.13788 | -78.35380 | 7916 ft | 172 kts | 356° |
| 2026-05-09 17:32 | -0.12694 | -78.35433 | 7866 ft | 137 kts | 358° |
| 2026-05-09 17:33 | -0.11964 | -78.35465 | 7827 ft | 73 kts | 359° |
| 2026-05-09 17:33 | -0.11469 | -78.35482 | 7822 ft | 53 kts | 358° |
| 2026-05-09 17:33 | -0.11140 | -78.35496 | 7813 ft | 41 kts | 359° |
| 2026-05-09 17:33 | -0.10919 | -78.35505 | 7801 ft | 24 kts | 356° |
| 2026-05-09 17:34 | -0.10749 | -78.35513 | 7790 ft | 25 kts | 358° |
| 2026-05-09 17:35 | -0.10752 | -78.35685 | 7787 ft | 10 kts | 176° |
| 2026-05-09 17:35 | -0.10824 | -78.35681 | 7796 ft | 10 kts | 177° |
| 2026-05-09 17:36 | -0.10897 | -78.35678 | 7800 ft | 10 kts | 178° |
| 2026-05-09 17:36 | -0.10969 | -78.35675 | 7803 ft | 10 kts | 177° |
| 2026-05-09 17:36 | -0.11041 | -78.35672 | 7805 ft | 10 kts | 177° |
| 2026-05-09 17:36 | -0.11113 | -78.35668 | 7808 ft | 11 kts | 177° |
| 2026-05-09 17:37 | -0.11210 | -78.35664 | 7812 ft | 15 kts | 178° |
| 2026-05-09 17:37 | -0.11314 | -78.35660 | 7816 ft | 15 kts | 177° |
| 2026-05-09 17:37 | -0.11419 | -78.35654 | 7819 ft | 15 kts | 177° |
| 2026-05-09 17:37 | -0.11523 | -78.35649 | 7817 ft | 15 kts | 177° |
| 2026-05-09 17:38 | -0.11628 | -78.35644 | 7823 ft | 15 kts | 177° |
| 2026-05-09 17:38 | -0.11733 | -78.35641 | 7826 ft | 15 kts | 179° |
| 2026-05-09 17:38 | -0.11837 | -78.35636 | 7828 ft | 15 kts | 177° |
| 2026-05-09 17:39 | -0.12046 | -78.35629 | 7837 ft | 15 kts | 181° |
| 2026-05-09 17:39 | -0.12150 | -78.35624 | 7839 ft | 15 kts | 175° |
| 2026-05-09 17:39 | -0.12255 | -78.35620 | 7843 ft | 15 kts | 178° |
| 2026-05-09 17:39 | -0.12360 | -78.35614 | 7842 ft | 15 kts | 178° |
| 2026-05-09 17:40 | -0.12464 | -78.35610 | 7850 ft | 15 kts | 177° |
| 2026-05-09 17:40 | -0.12568 | -78.35607 | 7854 ft | 15 kts | 178° |
| 2026-05-09 17:40 | -0.12671 | -78.35614 | 7856 ft | 15 kts | 210° |
| 2026-05-09 17:40 | -0.12731 | -78.35682 | 7858 ft | 11 kts | 180° |
| 2026-05-09 17:41 | -0.12809 | -78.35679 | 7866 ft | 11 kts | 176° |
| 2026-05-09 17:41 | -0.12870 | -78.35692 | 7868 ft | 7 kts | 240° |
| 2026-05-09 17:41 | -0.12875 | -78.35745 | 7863 ft | 6 kts | 266° |
| 2026-05-09 17:41 | -0.12877 | -78.35763 | 7863 ft | 4 kts | 266° |
| 2026-05-09 17:42 | -0.12877 | -78.35769 | 7863 ft | 0 kts | 266° |